Time;durP1;ratioP1;P1;durP2;ratioP2;P2;SDS_P1;SDS_P2;PMS_P1;PMS_P2;Temp;Humidity;BMP_temperature;BMP_pressure;BME280_temperature;BME280_humidity;BME280_pressure;Samples;Min_cycle;Max_cycle;Signal;HPM_P1;HPM_P2
2022/01/17 00:01:11;;;;;;;23.42;3.58;;;5.40;99.90;;;;;;5035121;28;20053;-67
2022/01/17 00:03:36;;;;;;;17.98;2.97;;;5.40;99.90;;;;;;5017774;28;20104;-67
2022/01/17 00:06:02;;;;;;;18.40;3.17;;;5.30;99.90;;;;;;5034815;28;20041;-67
2022/01/17 00:08:28;;;;;;;28.10;3.72;;;5.40;99.90;;;;;;5017078;28;20085;-69
2022/01/17 00:10:54;;;;;;;17.33;3.17;;;5.20;99.90;;;;;;5035001;28;20041;-67
2022/01/17 00:13:39;;;;;;;21.10;3.10;;;5.10;99.90;;;;;;5017654;28;20049;-67
2022/01/17 00:16:10;;;;;;;22.85;3.30;;;5.10;99.90;;;;;;5034461;28;20045;-67
2022/01/17 00:21:03;;;;;;;20.35;3.17;;;5.00;99.90;;;;;;5034475;28;20050;-66
2022/01/17 00:23:29;;;;;;;14.98;3.00;;;5.00;99.90;;;;;;5032807;28;20072;-66
2022/01/17 00:25:54;;;;;;;23.65;3.25;;;5.00;99.90;;;;;;5034384;28;20050;-68
2022/01/17 00:28:20;;;;;;;22.88;3.50;;;5.00;99.90;;;;;;5034473;28;20120;-67
2022/01/17 00:30:46;;;;;;;17.20;2.60;;;5.10;99.90;;;;;;5034812;28;20122;-66
2022/01/17 00:33:11;;;;;;;26.65;3.78;;;5.10;99.90;;;;;;5017206;28;20473;-68
2022/01/17 00:35:37;;;;;;;20.80;3.35;;;5.10;99.90;;;;;;5017245;28;20065;-66
2022/01/17 00:38:03;;;;;;;18.55;3.47;;;5.10;99.90;;;;;;5021584;28;20050;-67
2022/01/17 00:40:29;;;;;;;26.35;3.65;;;5.10;99.90;;;;;;5018171;28;20182;-66
2022/01/17 00:42:55;;;;;;;21.88;3.78;;;5.10;99.90;;;;;;4984891;28;20104;-67
2022/01/17 00:45:27;;;;;;;23.50;3.65;;;5.10;99.90;;;;;;5001217;28;20370;-67
2022/01/17 00:47:55;;;;;;;22.45;3.17;;;5.10;99.90;;;;;;5000972;28;20453;-67
2022/01/17 00:50:21;;;;;;;21.52;3.75;;;5.10;99.90;;;;;;5018156;28;20053;-67
2022/01/17 00:52:47;;;;;;;18.60;3.17;;;5.20;99.90;;;;;;5018326;28;20053;-67
2022/01/17 00:55:13;;;;;;;25.40;3.95;;;5.20;99.90;;;;;;5018013;28;20096;-66
2022/01/17 00:57:38;;;;;;;19.98;4.00;;;5.20;99.90;;;;;;5017840;28;20386;-66
2022/01/17 01:00:05;;;;;;;20.17;3.78;;;5.30;99.90;;;;;;5000725;28;20042;-67
2022/01/17 01:02:31;;;;;;;22.33;3.33;;;5.30;99.90;;;;;;5018155;28;20042;-67
2022/01/17 01:04:56;;;;;;;24.70;3.30;;;5.30;99.90;;;;;;5018015;28;20112;-66
2022/01/17 01:07:22;;;;;;;21.60;3.63;;;5.20;99.90;;;;;;5017649;28;20046;-67
2022/01/17 01:10:10;;;;;;;23.58;3.45;;;5.20;99.90;;;;;;5000523;28;20089;-67
2022/01/17 01:12:34;;;;;;;24.58;3.40;;;5.10;99.90;;;;;;5017307;28;20474;-67
2022/01/17 01:15:00;;;;;;;22.38;3.47;;;5.10;99.90;;;;;;5017756;28;20042;-68
2022/01/17 01:17:33;;;;;;;21.80;2.88;;;5.10;99.90;;;;;;5017494;28;20129;-66
2022/01/17 01:20:12;;;;;;;25.45;3.38;;;5.00;99.90;;;;;;5000865;28;20518;-69
2022/01/17 01:28:06;;;;;;;22.08;3.30;;;5.00;99.90;;;;;;5000110;28;20085;-69
2022/01/17 01:30:34;;;;;;;22.40;3.70;;;5.00;99.90;;;;;;5000810;28;20077;-69
2022/01/17 01:33:00;;;;;;;21.88;3.40;;;5.00;99.90;;;;;;5017195;28;20053;-67
2022/01/17 01:35:29;;;;;;;26.60;3.80;;;5.00;99.90;;;;;;5017710;28;20124;-67
2022/01/17 01:37:54;;;;;;;16.98;2.92;;;5.00;99.90;;;;;;5017103;28;20038;-67
2022/01/17 01:40:21;;;;;;;20.77;2.80;;;5.00;99.90;;;;;;5000700;28;20451;-66
2022/01/17 01:42:49;;;;;;;23.83;3.50;;;5.30;99.90;;;;;;5017090;28;20053;-67
2022/01/17 01:45:15;;;;;;;25.30;3.55;;;5.00;99.90;;;;;;5000145;28;20362;-67
2022/01/17 01:47:42;;;;;;;26.70;3.50;;;5.10;99.90;;;;;;4999907;28;20049;-67
2022/01/17 01:50:10;;;;;;;21.27;3.00;;;5.10;99.90;;;;;;5017137;28;20100;-67
2022/01/17 01:52:37;;;;;;;17.35;3.03;;;5.10;99.90;;;;;;5011122;28;20351;-68
2022/01/17 01:55:04;;;;;;;20.13;3.58;;;5.10;99.90;;;;;;5019010;28;20060;-67
2022/01/17 01:57:30;;;;;;;21.15;3.72;;;5.10;99.90;;;;;;5036640;28;20114;-68
2022/01/17 01:59:56;;;;;;;20.20;3.10;;;5.10;99.90;;;;;;5036744;28;20542;-68
2022/01/17 02:02:21;;;;;;;19.80;3.40;;;5.10;99.90;;;;;;5036578;28;20037;-67
2022/01/17 02:04:47;;;;;;;25.67;3.55;;;5.10;99.90;;;;;;5036532;28;20059;-67
2022/01/17 02:07:13;;;;;;;24.98;3.45;;;5.00;99.90;;;;;;5036526;28;20041;-67
2022/01/17 02:09:38;;;;;;;19.88;3.55;;;5.00;99.90;;;;;;5018889;28;20546;-67
2022/01/17 02:12:04;;;;;;;15.77;3.22;;;5.00;99.90;;;;;;5019347;28;20362;-66
2022/01/17 02:14:30;;;;;;;24.25;3.75;;;5.00;99.90;;;;;;5035997;28;20382;-66
2022/01/17 02:17:01;;;;;;;23.02;3.35;;;5.00;99.90;;;;;;5036383;28;20054;-66
2022/01/17 02:19:28;;;;;;;17.88;2.92;;;5.00;99.90;;;;;;5036337;28;20045;-65
2022/01/17 02:21:54;;;;;;;27.02;3.45;;;5.10;99.90;;;;;;5032621;28;20100;-67
2022/01/17 02:24:22;;;;;;;19.23;3.35;;;4.90;99.90;;;;;;5025572;28;20427;-66
2022/01/17 02:26:49;;;;;;;17.63;3.20;;;4.90;99.90;;;;;;4995763;28;20061;-68
2022/01/17 02:29:15;;;;;;;24.73;3.28;;;4.90;99.90;;;;;;4996589;28;20050;-69
2022/01/17 02:31:42;;;;;;;17.52;3.08;;;4.90;99.90;;;;;;4995897;28;20455;-65
2022/01/17 02:34:08;;;;;;;31.42;3.70;;;4.90;99.90;;;;;;4996599;28;20062;-69
2022/01/17 02:36:33;;;;;;;20.77;3.50;;;4.90;99.90;;;;;;4996434;28;20053;-69
2022/01/17 02:38:59;;;;;;;18.80;3.05;;;4.90;99.90;;;;;;4996113;28;20082;-67
2022/01/17 02:41:36;;;;;;;26.02;4.20;;;4.90;99.90;;;;;;4996430;28;20108;-67
2022/01/17 02:44:02;;;;;;;24.17;3.50;;;4.90;99.90;;;;;;4995475;28;20054;-67
2022/01/17 02:46:29;;;;;;;27.02;3.47;;;4.90;99.90;;;;;;4996047;28;20356;-68
2022/01/17 02:48:56;;;;;;;23.20;2.97;;;5.00;99.90;;;;;;4995638;28;20132;-67
2022/01/17 02:51:22;;;;;;;18.23;3.03;;;4.90;99.90;;;;;;4997596;28;20050;-69
2022/01/17 02:53:48;;;;;;;20.55;3.35;;;4.90;99.90;;;;;;5015872;28;20339;-67
2022/01/17 02:56:14;;;;;;;30.95;4.70;;;4.90;99.90;;;;;;5015752;28;20054;-66
2022/01/17 02:58:40;;;;;;;22.38;2.80;;;4.90;99.90;;;;;;5013188;28;20053;-67
2022/01/17 03:01:35;;;;;;;28.25;3.50;;;4.90;99.90;;;;;;5014687;28;20215;-66
2022/01/17 03:04:01;;;;;;;24.65;4.13;;;4.90;99.90;;;;;;5002598;28;20062;-68
2022/01/17 03:06:28;;;;;;;22.60;3.28;;;4.90;99.90;;;;;;5014493;28;20049;-67
2022/01/17 03:08:53;;;;;;;29.98;3.65;;;4.90;99.90;;;;;;5015602;28;20076;-66
2022/01/17 03:11:24;;;;;;;17.92;3.47;;;4.90;99.90;;;;;;5015567;28;20434;-67
2022/01/17 03:13:51;;;;;;;24.08;3.80;;;4.90;99.90;;;;;;5015626;28;20050;-67
2022/01/17 03:16:19;;;;;;;20.42;3.92;;;4.90;99.90;;;;;;5015381;28;20129;-67
2022/01/17 03:18:50;;;;;;;26.98;3.80;;;4.90;99.90;;;;;;5001894;28;20414;-67
2022/01/17 03:21:17;;;;;;;22.63;3.70;;;5.10;99.90;;;;;;4994893;28;20046;-66
2022/01/17 03:23:43;;;;;;;20.77;2.70;;;5.00;99.90;;;;;;4995422;28;20050;-67
2022/01/17 03:26:09;;;;;;;21.50;3.17;;;5.00;99.90;;;;;;5003998;28;20054;-67
2022/01/17 03:28:35;;;;;;;21.40;3.10;;;5.00;99.90;;;;;;4998118;28;20481;-67
2022/01/17 03:31:04;;;;;;;24.77;3.55;;;5.00;99.90;;;;;;4997800;28;20045;-67
2022/01/17 03:33:29;;;;;;;22.92;3.13;;;5.00;99.90;;;;;;4998033;28;20201;-66
2022/01/17 03:35:55;;;;;;;18.70;3.25;;;5.00;99.90;;;;;;5015264;28;20156;-66
2022/01/17 03:38:24;;;;;;;18.70;3.13;;;5.10;99.90;;;;;;4997919;28;20103;-66
2022/01/17 03:40:51;;;;;;;23.42;3.03;;;5.10;99.90;;;;;;4998434;28;20240;-67
2022/01/17 03:43:18;;;;;;;26.30;3.60;;;5.20;99.90;;;;;;4997738;28;20133;-66
2022/01/17 03:45:45;;;;;;;18.88;3.60;;;5.20;99.90;;;;;;5014965;28;20038;-67
2022/01/17 03:48:11;;;;;;;26.38;3.38;;;5.20;99.90;;;;;;5006336;28;20094;-66
2022/01/17 03:50:36;;;;;;;13.93;3.13;;;5.30;99.90;;;;;;5035048;28;20428;-67
2022/01/17 03:53:03;;;;;;;16.58;2.92;;;5.30;99.90;;;;;;5034914;28;20053;-68
2022/01/17 03:55:29;;;;;;;25.63;3.53;;;5.30;99.90;;;;;;5017453;28;20362;-67
2022/01/17 03:57:54;;;;;;;17.90;2.88;;;5.30;99.90;;;;;;5034830;28;20038;-69
2022/01/17 04:00:23;;;;;;;24.00;3.55;;;5.30;99.90;;;;;;5035041;28;20060;-68
2022/01/17 04:02:50;;;;;;;21.08;3.30;;;5.30;99.90;;;;;;5034735;28;20056;-69
2022/01/17 04:05:16;;;;;;;26.63;3.72;;;5.20;99.90;;;;;;5017593;28;20049;-67
2022/01/17 04:07:42;;;;;;;18.08;2.40;;;5.20;99.90;;;;;;5017128;28;20106;-67
2022/01/17 04:10:08;;;;;;;18.60;3.38;;;5.20;99.90;;;;;;5034697;28;20128;-68
2022/01/17 04:12:33;;;;;;;23.20;3.10;;;5.10;99.90;;;;;;5034524;28;20046;-66
2022/01/17 04:14:59;;;;;;;21.98;3.53;;;5.10;99.90;;;;;;5037793;28;20057;-68
2022/01/17 04:17:28;;;;;;;17.35;2.72;;;5.10;99.90;;;;;;5034019;28;20042;-67
2022/01/17 04:20:05;;;;;;;15.75;3.15;;;5.00;99.90;;;;;;5018974;28;20042;-66
2022/01/17 04:22:37;;;;;;;25.50;3.13;;;5.00;99.90;;;;;;5018371;28;20065;-66
2022/01/17 04:25:05;;;;;;;18.65;3.08;;;5.00;99.90;;;;;;5018704;28;20042;-67
2022/01/17 04:27:31;;;;;;;15.38;3.03;;;4.90;99.90;;;;;;5018685;28;20123;-66
2022/01/17 04:29:57;;;;;;;19.95;4.03;;;4.90;99.90;;;;;;5020529;28;20446;-69
2022/01/17 04:32:23;;;;;;;21.63;2.60;;;5.00;99.90;;;;;;5037943;28;20049;-67
2022/01/17 04:34:48;;;;;;;21.25;3.30;;;5.00;99.90;;;;;;5038296;28;20045;-68
2022/01/17 04:37:14;;;;;;;19.40;3.00;;;5.00;99.90;;;;;;5038201;28;20415;-69
2022/01/17 04:39:40;;;;;;;18.25;3.05;;;5.10;99.90;;;;;;5038330;28;20046;-67
2022/01/17 04:42:12;;;;;;;18.55;2.80;;;5.10;99.90;;;;;;5037794;28;20190;-66
2022/01/17 04:47:23;;;;;;;21.92;3.70;;;5.20;99.90;;;;;;5019903;28;20088;-67
2022/01/17 04:49:48;;;;;;;16.73;3.00;;;5.20;99.90;;;;;;5038036;28;20081;-66
2022/01/17 04:52:16;;;;;;;20.63;3.03;;;5.30;99.90;;;;;;5037855;28;20049;-67
2022/01/17 04:54:43;;;;;;;17.75;3.00;;;5.30;99.90;;;;;;5038268;28;20131;-67
2022/01/17 04:57:11;;;;;;;20.75;3.15;;;5.40;99.90;;;;;;5037760;28;20053;-67
2022/01/17 04:59:39;;;;;;;24.77;3.85;;;5.30;99.90;;;;;;5004321;28;20053;-67
2022/01/17 05:02:06;;;;;;;19.00;2.70;;;5.40;99.90;;;;;;5037603;28;20446;-67
2022/01/17 05:04:32;;;;;;;24.83;3.55;;;5.50;99.90;;;;;;5037805;28;20077;-66
2022/01/17 05:06:58;;;;;;;20.40;3.30;;;5.50;99.90;;;;;;5020322;28;20073;-67
2022/01/17 05:09:23;;;;;;;16.13;2.92;;;5.50;99.90;;;;;;5037510;28;20154;-67
2022/01/17 05:11:49;;;;;;;23.50;3.63;;;5.50;99.90;;;;;;5037647;28;20045;-66
2022/01/17 05:14:15;;;;;;;22.63;3.30;;;5.50;99.90;;;;;;5020203;28;20033;-67
2022/01/17 05:16:52;;;;;;;18.08;2.85;;;5.60;99.90;;;;;;5036560;28;20153;-67
2022/01/17 05:22:01;;;;;;;24.85;3.53;;;5.70;99.90;;;;;;5037183;28;20041;-66
2022/01/17 05:24:27;;;;;;;27.50;3.45;;;5.80;99.90;;;;;;5036874;28;20107;-67
2022/01/17 05:26:52;;;;;;;14.73;3.35;;;5.80;99.90;;;;;;5037228;28;20053;-68
2022/01/17 05:29:19;;;;;;;21.85;3.50;;;5.80;99.90;;;;;;5037473;28;20049;-68
2022/01/17 05:31:45;;;;;;;19.05;3.40;;;5.80;99.90;;;;;;5037210;28;20111;-67
2022/01/17 05:34:10;;;;;;;23.65;4.88;;;5.80;99.90;;;;;;5036927;28;20053;-67
2022/01/17 05:36:36;;;;;;;23.13;3.28;;;5.90;99.90;;;;;;5036892;28;20047;-67
2022/01/17 05:39:02;;;;;;;22.85;3.67;;;5.90;99.90;;;;;;5037551;28;20048;-67
2022/01/17 05:41:27;;;;;;;25.50;4.45;;;5.90;99.90;;;;;;5037274;28;20045;-67
2022/01/17 05:43:53;;;;;;;16.13;3.60;;;5.90;99.90;;;;;;5037775;28;20124;-67
2022/01/17 05:46:18;;;;;;;18.05;3.45;;;5.90;99.90;;;;;;5036834;28;20370;-68
2022/01/17 05:48:44;;;;;;;23.63;3.60;;;6.00;99.90;;;;;;5021030;28;20061;-68
2022/01/17 05:51:09;;;;;;;18.00;3.70;;;6.00;99.90;;;;;;5052614;28;20040;-66
2022/01/17 05:53:35;;;;;;;26.98;3.80;;;6.00;99.90;;;;;;5016751;28;20056;-69
2022/01/17 05:56:01;;;;;;;26.02;4.03;;;6.00;99.90;;;;;;4989498;28;20366;-67
2022/01/17 05:58:26;;;;;;;22.27;4.10;;;6.00;99.90;;;;;;5016652;28;20367;-69
2022/01/17 06:00:53;;;;;;;28.55;4.47;;;6.00;99.90;;;;;;4999452;28;20097;-67
2022/01/17 06:03:18;;;;;;;25.23;4.13;;;6.00;99.90;;;;;;5016770;28;20049;-67
2022/01/17 06:05:45;;;;;;;22.30;4.50;;;6.00;99.90;;;;;;4998933;28;20042;-67
2022/01/17 06:08:10;;;;;;;22.85;4.68;;;6.10;99.90;;;;;;5017133;28;20049;-67
2022/01/17 06:10:38;;;;;;;24.70;4.43;;;6.10;99.90;;;;;;4999096;28;20129;-66
2022/01/17 06:13:04;;;;;;;24.70;4.55;;;6.10;99.90;;;;;;5011911;28;20045;-67
2022/01/17 06:15:29;;;;;;;20.65;4.78;;;6.10;99.90;;;;;;5011386;28;20042;-68
2022/01/17 06:17:55;;;;;;;33.15;5.00;;;6.20;99.90;;;;;;5015865;28;20093;-68
2022/01/17 06:20:20;;;;;;;20.75;4.93;;;6.10;99.90;;;;;;5018119;28;20053;-67
2022/01/17 06:22:46;;;;;;;26.85;4.50;;;6.20;99.90;;;;;;5035784;28;20049;-66
2022/01/17 06:25:12;;;;;;;23.85;4.32;;;6.20;99.90;;;;;;5018509;28;20127;-67
2022/01/17 06:27:38;;;;;;;32.70;4.53;;;6.20;99.90;;;;;;5018892;28;20057;-69
2022/01/17 06:30:04;;;;;;;24.10;4.85;;;6.20;99.90;;;;;;5036092;28;20464;-67
2022/01/17 06:32:31;;;;;;;21.70;4.90;;;6.20;99.90;;;;;;5003526;28;20472;-67
2022/01/17 06:34:57;;;;;;;27.80;4.72;;;6.20;99.90;;;;;;5015536;28;20478;-67
2022/01/17 06:37:23;;;;;;;30.45;5.82;;;6.20;99.90;;;;;;5015317;28;20137;-68
2022/01/17 06:39:49;;;;;;;26.38;4.88;;;6.20;99.90;;;;;;5029444;28;20049;-68
2022/01/17 06:42:15;;;;;;;33.92;5.45;;;6.30;99.90;;;;;;5024781;28;20098;-68
2022/01/17 06:44:40;;;;;;;23.15;4.68;;;6.20;99.90;;;;;;5032320;28;20046;-67
2022/01/17 06:47:06;;;;;;;26.60;4.78;;;6.20;99.90;;;;;;5018380;28;20170;-66
2022/01/17 06:49:32;;;;;;;30.33;5.63;;;6.20;99.90;;;;;;5034853;28;20045;-68
2022/01/17 06:51:57;;;;;;;30.17;5.80;;;6.20;99.90;;;;;;5034594;28;20052;-67
2022/01/17 06:54:23;;;;;;;25.00;5.03;;;6.20;99.90;;;;;;5035254;28;20059;-69
2022/01/17 06:56:49;;;;;;;25.77;5.25;;;6.10;99.90;;;;;;5035690;28;20045;-67
2022/01/17 06:59:15;;;;;;;18.77;4.50;;;6.20;99.90;;;;;;5018258;28;20060;-68
2022/01/17 07:01:41;;;;;;;33.20;4.90;;;6.20;99.90;;;;;;5017625;28;20087;-66
2022/01/17 07:04:09;;;;;;;31.50;5.55;;;6.30;99.90;;;;;;5020286;28;20053;-67
2022/01/17 07:06:34;;;;;;;26.92;5.15;;;6.20;99.90;;;;;;5008152;28;20049;-67
2022/01/17 07:09:01;;;;;;;30.67;4.50;;;6.20;99.90;;;;;;5024673;28;20037;-67
2022/01/17 07:11:26;;;;;;;32.25;5.57;;;6.20;99.90;;;;;;5006961;28;20049;-68
2022/01/17 07:13:52;;;;;;;27.15;5.68;;;6.20;99.90;;;;;;5008395;28;20103;-68
2022/01/17 07:16:18;;;;;;;33.20;4.88;;;6.20;99.90;;;;;;4996897;28;20042;-68
2022/01/17 07:18:44;;;;;;;37.80;5.43;;;6.30;99.90;;;;;;5015522;28;20362;-68
2022/01/17 07:21:10;;;;;;;30.45;5.60;;;6.30;99.90;;;;;;5005360;28;20045;-69
2022/01/17 07:23:36;;;;;;;32.53;5.60;;;6.30;99.90;;;;;;5017111;28;20096;-67
2022/01/17 07:26:01;;;;;;;29.52;5.40;;;6.20;99.90;;;;;;5024469;28;20079;-68
2022/01/17 07:28:27;;;;;;;27.58;4.93;;;6.20;99.90;;;;;;4997689;28;20180;-66
2022/01/17 07:30:53;;;;;;;31.70;5.95;;;6.20;99.90;;;;;;5024507;28;20045;-68
2022/01/17 07:33:21;;;;;;;34.08;5.30;;;6.30;99.90;;;;;;5017546;28;20072;-68
2022/01/17 07:35:48;;;;;;;35.70;5.20;;;6.30;99.90;;;;;;5034402;28;20065;-68
2022/01/17 07:38:14;;;;;;;37.65;4.78;;;6.30;99.90;;;;;;5034877;28;20060;-67
2022/01/17 07:40:42;;;;;;;29.85;6.10;;;6.30;99.90;;;;;;5034947;28;20083;-68
2022/01/17 07:43:09;;;;;;;32.97;5.47;;;6.30;99.90;;;;;;5017013;28;20346;-68
2022/01/17 07:45:36;;;;;;;34.08;5.32;;;6.40;99.90;;;;;;5034312;28;20054;-67
2022/01/17 07:48:22;;;;;;;36.28;6.50;;;6.40;99.90;;;;;;5034288;28;20051;-67
2022/01/17 07:50:48;;;;;;;33.42;5.35;;;6.40;99.90;;;;;;5034058;28;20056;-71
2022/01/17 07:53:16;;;;;;;39.88;5.40;;;6.40;99.90;;;;;;5015653;28;20045;-69
2022/01/17 07:55:42;;;;;;;30.75;5.72;;;6.50;99.90;;;;;;5013064;28;20050;-69
2022/01/17 07:58:07;;;;;;;33.72;4.93;;;6.50;99.90;;;;;;5014682;28;20133;-68
2022/01/17 08:00:33;;;;;;;32.05;4.50;;;6.50;99.90;;;;;;4997771;28;20042;-69
2022/01/17 08:02:58;;;;;;;33.80;5.00;;;6.50;99.90;;;;;;4997128;28;20049;-69
2022/01/17 08:05:25;;;;;;;33.33;4.93;;;6.50;99.90;;;;;;4996213;28;20343;-67
2022/01/17 08:07:51;;;;;;;31.50;5.20;;;6.60;99.90;;;;;;4980505;28;20045;-67
2022/01/17 08:10:16;;;;;;;31.00;4.50;;;6.60;99.90;;;;;;5014615;28;20084;-69
2022/01/17 08:12:47;;;;;;;40.40;6.18;;;6.60;99.90;;;;;;4996944;28;20046;-68
2022/01/17 08:15:12;;;;;;;35.05;4.78;;;6.70;99.90;;;;;;4997069;28;20050;-69
2022/01/17 08:17:38;;;;;;;27.90;4.82;;;6.70;99.90;;;;;;4997217;28;20054;-69
2022/01/17 08:20:07;;;;;;;33.15;4.95;;;6.70;99.90;;;;;;4997933;28;20045;-69
2022/01/17 08:22:33;;;;;;;44.42;5.57;;;6.70;99.90;;;;;;4996968;28;20057;-70
2022/01/17 08:24:58;;;;;;;43.33;5.10;;;6.70;99.90;;;;;;4997103;28;20042;-70
2022/01/17 08:27:24;;;;;;;34.03;5.55;;;6.80;99.90;;;;;;5014225;28;20076;-69
2022/01/17 08:29:49;;;;;;;34.08;5.30;;;6.80;99.90;;;;;;5014283;28;20058;-70
2022/01/17 08:32:15;;;;;;;44.97;6.00;;;6.80;99.90;;;;;;5014635;28;20212;-70
2022/01/17 08:34:41;;;;;;;33.42;5.25;;;6.80;99.90;;;;;;5013704;28;20081;-69
2022/01/17 08:37:07;;;;;;;32.50;5.72;;;6.90;99.90;;;;;;5014752;28;20085;-69
2022/01/17 08:39:32;;;;;;;43.22;5.45;;;6.90;99.90;;;;;;4996361;28;20041;-69
2022/01/17 08:41:59;;;;;;;32.33;4.78;;;6.90;99.90;;;;;;5009131;28;20057;-68
2022/01/17 08:44:25;;;;;;;35.90;6.00;;;7.00;99.90;;;;;;5001196;28;20046;-71
2022/01/17 08:46:51;;;;;;;36.35;4.85;;;7.00;99.90;;;;;;5017687;28;20095;-67
2022/01/17 08:49:17;;;;;;;36.97;4.80;;;7.10;99.90;;;;;;4999704;28;20115;-69
2022/01/17 08:51:43;;;;;;;43.97;5.38;;;7.10;99.90;;;;;;5028034;28;20386;-68
2022/01/17 08:54:08;;;;;;;39.63;6.10;;;7.20;99.90;;;;;;5015418;28;20053;-68
2022/01/17 08:56:34;;;;;;;47.75;6.32;;;7.20;99.90;;;;;;5033260;28;20075;-67
2022/01/17 08:59:00;;;;;;;48.30;6.20;;;7.30;99.90;;;;;;5015546;28;20381;-68
2022/01/17 09:01:26;;;;;;;35.72;6.00;;;7.30;99.90;;;;;;5018729;28;20464;-69
2022/01/17 09:03:52;;;;;;;35.88;5.35;;;7.30;99.90;;;;;;5036516;28;20431;-69
2022/01/17 09:06:18;;;;;;;36.92;5.35;;;7.40;99.90;;;;;;5036668;28;20497;-69
2022/01/17 09:08:44;;;;;;;40.67;5.18;;;7.50;99.90;;;;;;5035714;28;20045;-71
2022/01/17 09:11:10;;;;;;;33.05;5.45;;;7.60;99.90;;;;;;5036703;28;20049;-69
2022/01/17 09:13:36;;;;;;;42.78;5.82;;;7.60;99.90;;;;;;5019164;28;20239;-70
2022/01/17 09:16:01;;;;;;;29.92;5.22;;;7.70;99.90;;;;;;5036669;28;20106;-68
2022/01/17 09:18:28;;;;;;;44.53;6.30;;;7.80;99.90;;;;;;5036646;28;20038;-69
2022/01/17 09:20:54;;;;;;;43.33;6.70;;;7.90;99.90;;;;;;5015328;28;20463;-69
2022/01/17 09:23:20;;;;;;;29.92;4.80;;;7.90;99.90;;;;;;5036345;28;20084;-68
2022/01/17 09:25:46;;;;;;;37.22;6.20;;;8.00;99.90;;;;;;5018760;28;20059;-70
2022/01/17 09:28:12;;;;;;;44.67;6.53;;;8.00;99.90;;;;;;5036163;28;20049;-69
2022/01/17 09:30:38;;;;;;;35.47;6.05;;;8.10;99.90;;;;;;5036247;28;20049;-70
2022/01/17 09:33:05;;;;;;;46.80;5.95;;;8.10;99.90;;;;;;5018659;28;20076;-67
2022/01/17 09:35:32;;;;;;;42.85;5.72;;;8.20;99.90;;;;;;5018976;28;20433;-69
2022/01/17 09:37:58;;;;;;;44.42;6.22;;;8.20;99.90;;;;;;5035879;28;20065;-68
2022/01/17 09:40:24;;;;;;;37.90;5.72;;;8.40;99.90;;;;;;5019202;28;20514;-69
2022/01/17 09:42:50;;;;;;;41.05;6.57;;;8.40;99.90;;;;;;5018123;28;20092;-69
2022/01/17 09:45:19;;;;;;;38.45;5.88;;;8.40;99.90;;;;;;5035483;28;20056;-70
2022/01/17 09:47:46;;;;;;;55.15;7.45;;;8.40;99.90;;;;;;5036108;28;20128;-68
2022/01/17 09:50:17;;;;;;;41.58;6.60;;;8.40;99.90;;;;;;5018452;28;20046;-70
2022/01/17 09:52:51;;;;;;;45.25;6.50;;;8.40;99.90;;;;;;5035983;28;20038;-68
2022/01/17 09:55:24;;;;;;;35.83;6.28;;;8.50;99.90;;;;;;5018424;28;20355;-70
2022/01/17 09:58:03;;;;;;;36.42;6.75;;;8.50;99.90;;;;;;5035585;28;20396;-71
2022/01/17 10:00:31;;;;;;;46.72;5.82;;;8.60;99.90;;;;;;5035895;28;20045;-67
2022/01/17 10:02:59;;;;;;;42.22;7.35;;;8.70;99.90;;;;;;5018334;28;20142;-69
2022/01/17 10:05:27;;;;;;;49.88;6.93;;;8.60;99.90;;;;;;5034525;28;20076;-70
2022/01/17 10:08:15;;;;;;;53.40;6.60;;;8.60;99.90;;;;;;5007876;28;20485;-69
2022/01/17 10:11:02;;;;;;;44.17;6.60;;;8.70;99.90;;;;;;5014892;28;20089;-69
2022/01/17 10:13:31;;;;;;;41.35;5.80;;;8.70;99.90;;;;;;4998239;28;20438;-69
2022/01/17 10:16:09;;;;;;;44.75;6.25;;;8.70;99.90;;;;;;5015753;28;20569;-69
2022/01/17 10:18:42;;;;;;;48.60;6.03;;;8.80;99.90;;;;;;4997810;28;20060;-70
2022/01/17 10:21:21;;;;;;;39.40;6.32;;;8.90;99.90;;;;;;5015547;28;20037;-70
2022/01/17 10:26:59;;;;;;;43.28;6.57;;;8.90;99.90;;;;;;5015115;28;20068;-68
2022/01/17 10:35:18;;;;;;;52.22;9.13;;;9.00;99.90;;;;;;5015362;28;20058;-68
2022/01/17 10:38:05;;;;;;;43.70;7.38;;;9.00;99.90;;;;;;4991955;28;20053;-69
2022/01/17 10:40:36;;;;;;;42.30;7.60;;;9.10;99.90;;;;;;5017574;28;20045;-68
2022/01/17 10:43:04;;;;;;;41.20;7.32;;;9.10;99.90;;;;;;5017392;28;20060;-68
2022/01/17 10:45:36;;;;;;;43.28;7.53;;;9.10;99.90;;;;;;5035083;28;20049;-69
2022/01/17 10:48:02;;;;;;;42.13;6.28;;;9.10;99.90;;;;;;5017947;28;20049;-68
2022/01/17 10:50:33;;;;;;;43.85;8.15;;;9.20;99.90;;;;;;5017451;28;20490;-68
2022/01/17 10:53:01;;;;;;;47.53;7.32;;;9.20;99.90;;;;;;5017384;28;20136;-68
2022/01/17 10:55:32;;;;;;;57.42;8.48;;;9.10;99.90;;;;;;5017627;28;20061;-69
2022/01/17 10:58:05;;;;;;;49.97;7.35;;;9.10;99.90;;;;;;5016984;28;20530;-70
2022/01/17 11:00:38;;;;;;;51.95;8.07;;;9.10;99.90;;;;;;5017072;28;20057;-68
2022/01/17 11:03:11;;;;;;;38.65;7.30;;;9.10;99.90;;;;;;5034609;28;20045;-69
2022/01/17 11:05:41;;;;;;;43.80;7.67;;;9.10;99.90;;;;;;5025756;28;20050;-71
2022/01/17 11:08:08;;;;;;;52.75;7.78;;;9.10;99.90;;;;;;5010708;28;20402;-67
2022/01/17 11:10:41;;;;;;;50.15;7.40;;;9.10;99.90;;;;;;5016574;28;20056;-69
2022/01/17 11:13:08;;;;;;;44.58;7.28;;;9.20;99.90;;;;;;4997432;28;20046;-67
2022/01/17 11:15:35;;;;;;;42.85;7.25;;;9.10;99.90;;;;;;4997490;28;20054;-69
2022/01/17 11:18:16;;;;;;;37.45;5.90;;;9.20;99.90;;;;;;4996651;28;20134;-72
2022/01/17 11:20:43;;;;;;;45.95;7.93;;;9.30;99.90;;;;;;5014754;28;20056;-70
2022/01/17 11:23:08;;;;;;;55.22;7.95;;;9.30;99.90;;;;;;5014179;28;20057;-71
2022/01/17 11:25:42;;;;;;;42.08;7.20;;;9.40;99.90;;;;;;5014492;28;20063;-69
2022/01/17 11:28:08;;;;;;;61.70;7.50;;;9.40;99.90;;;;;;4997448;28;20052;-69
2022/01/17 11:30:36;;;;;;;48.60;7.75;;;9.40;99.90;;;;;;5014788;28;20411;-70
2022/01/17 11:33:04;;;;;;;53.28;7.95;;;9.40;99.90;;;;;;4996952;28;20046;-70
2022/01/17 11:35:31;;;;;;;46.03;8.50;;;9.40;99.90;;;;;;5014644;28;20041;-68
2022/01/17 11:37:59;;;;;;;45.70;7.70;;;9.50;99.90;;;;;;5014360;28;20058;-68
2022/01/17 11:40:37;;;;;;;47.15;7.55;;;9.40;99.90;;;;;;4997548;28;20496;-68
2022/01/17 11:43:18;;;;;;;38.45;5.57;;;9.50;99.90;;;;;;5013963;28;20069;-66
2022/01/17 11:45:45;;;;;;;53.30;9.77;;;9.50;99.90;;;;;;4996896;28;20049;-68
2022/01/17 11:48:17;;;;;;;44.33;7.07;;;9.50;99.90;;;;;;5014440;28;20038;-68
2022/01/17 11:50:45;;;;;;;50.50;8.40;;;9.50;99.90;;;;;;4996968;28;20414;-66
2022/01/17 11:53:11;;;;;;;51.35;8.02;;;9.60;99.90;;;;;;4997269;28;20061;-67
2022/01/17 11:55:42;;;;;;;58.88;7.47;;;9.50;99.90;;;;;;5014043;28;20050;-67
2022/01/17 11:58:26;;;;;;;50.17;8.25;;;9.50;99.90;;;;;;5013803;28;20050;-68
2022/01/17 12:01:00;;;;;;;56.88;8.50;;;9.50;99.90;;;;;;5020371;28;20114;-69
2022/01/17 12:03:40;;;;;;;43.63;7.13;;;9.50;99.90;;;;;;5034031;28;20068;-68
2022/01/17 12:06:34;;;;;;;51.83;6.80;;;9.40;99.90;;;;;;5033188;28;20046;-70
2022/01/17 12:09:21;;;;;;;47.83;7.10;;;9.40;99.90;;;;;;5011431;28;20042;-67
2022/01/17 12:12:03;;;;;;;43.75;7.38;;;9.50;99.90;;;;;;5014198;28;20426;-70
2022/01/17 12:14:33;;;;;;;41.88;7.68;;;9.50;99.90;;;;;;4996974;28;20058;-70
2022/01/17 12:17:24;;;;;;;37.65;6.28;;;9.50;99.90;;;;;;4996967;28;20132;-68
2022/01/17 12:20:05;;;;;;;49.28;9.43;;;9.60;99.90;;;;;;4997010;28;20474;-67
2022/01/17 12:22:49;;;;;;;43.35;7.43;;;9.60;99.90;;;;;;5013630;28;20422;-69
2022/01/17 12:25:21;;;;;;;40.85;7.47;;;9.70;99.90;;;;;;4997192;28;20058;-68
2022/01/17 12:28:14;;;;;;;46.00;7.43;;;9.70;99.90;;;;;;4996734;28;20064;-66
2022/01/17 12:30:54;;;;;;;43.47;7.88;;;9.70;99.90;;;;;;5000361;28;20469;-67
2022/01/17 12:33:40;;;;;;;39.10;6.97;;;9.70;99.90;;;;;;5015965;28;20053;-68
2022/01/17 12:36:24;;;;;;;59.13;9.25;;;9.70;99.90;;;;;;5036007;28;20088;-68
2022/01/17 12:38:51;;;;;;;44.67;8.05;;;9.60;99.90;;;;;;5036657;28;20458;-69
2022/01/17 12:41:34;;;;;;;33.97;7.40;;;9.60;99.90;;;;;;5037619;28;20056;-70
2022/01/17 12:44:12;;;;;;;47.78;7.63;;;9.60;99.90;;;;;;5020105;28;20049;-68
2022/01/17 12:46:37;;;;;;;36.67;7.00;;;9.50;99.90;;;;;;5020074;28;20037;-68
2022/01/17 12:49:03;;;;;;;41.83;7.70;;;9.50;99.90;;;;;;5037204;28;20393;-70
2022/01/17 12:51:28;;;;;;;33.58;6.18;;;9.50;99.90;;;;;;5019808;28;20358;-67
2022/01/17 12:53:54;;;;;;;47.13;7.50;;;9.50;99.90;;;;;;5037059;28;20074;-68
2022/01/17 12:56:21;;;;;;;31.75;6.63;;;9.50;99.90;;;;;;5037123;28;20103;-68
2022/01/17 12:58:47;;;;;;;52.88;8.30;;;9.50;99.90;;;;;;5019214;28;20065;-68
2022/01/17 13:01:15;;;;;;;32.83;6.63;;;9.50;99.90;;;;;;5036429;28;20060;-68
2022/01/17 13:03:43;;;;;;;40.50;7.20;;;9.50;99.90;;;;;;5036619;28;20483;-70
2022/01/17 13:06:13;;;;;;;36.38;6.63;;;9.50;99.90;;;;;;5036953;28;20064;-70
2022/01/17 13:08:43;;;;;;;46.50;7.32;;;9.40;99.90;;;;;;5018893;28;20118;-69
2022/01/17 13:11:17;;;;;;;39.85;6.68;;;9.40;99.90;;;;;;5019538;28;20115;-68
2022/01/17 13:14:01;;;;;;;39.80;7.97;;;9.40;99.90;;;;;;5036879;28;20045;-67
2022/01/17 13:16:35;;;;;;;52.20;7.13;;;9.40;99.90;;;;;;5036926;28;20132;-67